Time;durP1;ratioP1;P1;durP2;ratioP2;P2;SDS_P1;SDS_P2;PMS_P1;PMS_P2;Temp;Humidity;BMP_temperature;BMP_pressure;BME280_temperature;BME280_humidity;BME280_pressure;Samples;Min_cycle;Max_cycle;Signal;HPM_P1;HPM_P2
2023/07/16 00:00:29;;;;;;;13.27;6.05;;;28.60;96.70;;;;;;4925000;29;20044;-79
2023/07/16 00:02:58;;;;;;;12.50;6.25;;;28.70;96.70;;;;;;4921264;29;20051;-80
2023/07/16 00:05:26;;;;;;;11.85;5.80;;;28.70;96.70;;;;;;4928003;29;20071;-81
2023/07/16 00:07:54;;;;;;;13.00;5.38;;;28.80;96.70;;;;;;4927840;29;20782;-79
2023/07/16 00:10:22;;;;;;;12.30;5.80;;;28.80;96.70;;;;;;4923498;29;20056;-81
2023/07/16 00:12:50;;;;;;;13.07;5.85;;;28.80;96.70;;;;;;4901540;29;20384;-81
2023/07/16 00:15:18;;;;;;;11.43;5.97;;;28.80;96.70;;;;;;4927153;29;20048;-79
2023/07/16 00:17:48;;;;;;;12.85;5.95;;;28.80;96.70;;;;;;4917475;29;20598;-79
2023/07/16 00:20:16;;;;;;;13.32;6.18;;;28.80;96.70;;;;;;4922199;29;20059;-79
2023/07/16 00:22:44;;;;;;;12.88;6.55;;;28.70;96.70;;;;;;4918244;29;20055;-81
2023/07/16 00:25:12;;;;;;;9.93;5.50;;;28.70;96.70;;;;;;4927714;29;20051;-80
2023/07/16 00:27:40;;;;;;;13.05;6.75;;;28.70;96.70;;;;;;4921873;29;21053;-80
2023/07/16 00:30:09;;;;;;;11.50;5.88;;;28.60;96.70;;;;;;4916342;29;20043;-80
2023/07/16 00:32:37;;;;;;;10.75;5.75;;;28.60;96.70;;;;;;4912417;29;20165;-80
2023/07/16 00:35:09;;;;;;;12.57;5.57;;;28.70;96.70;;;;;;4916215;29;20056;-81
2023/07/16 00:37:37;;;;;;;11.57;5.90;;;28.60;96.70;;;;;;4911851;29;20048;-81
2023/07/16 00:40:08;;;;;;;11.93;6.00;;;28.60;96.70;;;;;;4909669;29;20067;-80
2023/07/16 00:42:36;;;;;;;10.93;5.78;;;28.60;96.70;;;;;;4908363;29;20055;-81
2023/07/16 00:45:12;;;;;;;12.02;5.78;;;28.50;96.70;;;;;;4925520;29;20044;-80
2023/07/16 00:47:41;;;;;;;;;;;28.40;96.70;;;;;;4900864;29;20040;-81
2023/07/16 00:50:11;;;;;;;12.60;5.93;;;28.40;96.70;;;;;;4908358;29;20332;-80
2023/07/16 00:52:40;;;;;;;12.60;6.28;;;28.40;96.70;;;;;;4910200;29;20417;-81
2023/07/16 00:55:09;;;;;;;11.55;6.07;;;28.40;96.70;;;;;;4913943;29;20036;-80
2023/07/16 00:57:38;;;;;;;13.48;6.50;;;28.30;96.70;;;;;;4917396;29;20047;-81
2023/07/16 01:00:09;;;;;;;12.35;6.45;;;28.30;96.70;;;;;;4911178;29;20071;-82
2023/07/16 01:02:37;;;;;;;12.63;6.68;;;28.30;96.70;;;;;;4900114;29;20494;-80
2023/07/16 01:05:06;;;;;;;9.95;5.90;;;28.30;96.70;;;;;;4913902;29;20047;-82
2023/07/16 01:07:42;;;;;;;12.38;5.82;;;28.40;96.70;;;;;;4923101;29;20479;-82
2023/07/16 01:10:10;;;;;;;12.45;6.03;;;28.30;96.70;;;;;;4915583;29;20059;-81
2023/07/16 01:12:39;;;;;;;11.82;6.32;;;28.20;96.70;;;;;;4912704;29;20107;-82
2023/07/16 01:15:09;;;;;;;11.30;5.95;;;28.20;96.70;;;;;;4928207;29;20054;-82
2023/07/16 01:17:39;;;;;;;12.98;6.15;;;28.20;96.70;;;;;;4914122;29;20139;-81
2023/07/16 01:20:09;;;;;;;11.23;5.80;;;28.30;96.70;;;;;;4914018;29;20557;-81
2023/07/16 01:22:57;;;;;;;10.95;6.40;;;28.20;96.70;;;;;;4912867;29;20731;-81
2023/07/16 01:25:42;;;;;;;12.57;5.88;;;28.30;96.70;;;;;;4919955;29;20067;-81
2023/07/16 01:28:23;;;;;;;10.45;5.47;;;28.20;96.70;;;;;;4927759;29;20530;-81
2023/07/16 01:30:54;;;;;;;9.13;5.93;;;28.20;96.70;;;;;;4913794;29;20599;-81
2023/07/16 01:33:23;;;;;;;9.23;5.63;;;28.20;96.70;;;;;;4930722;29;20051;-81
2023/07/16 01:35:52;;;;;;;14.45;6.07;;;28.20;96.70;;;;;;4919312;29;20044;-81
2023/07/16 01:38:21;;;;;;;9.48;5.53;;;28.10;96.70;;;;;;4935491;29;20051;-81
2023/07/16 01:40:49;;;;;;;10.90;5.63;;;28.10;96.70;;;;;;4923069;29;20051;-81
2023/07/16 01:43:17;;;;;;;9.18;5.75;;;28.10;96.70;;;;;;4915770;29;20516;-81
2023/07/16 01:45:46;;;;;;;12.40;5.80;;;28.10;96.70;;;;;;4914579;29;20376;-81
2023/07/16 01:48:28;;;;;;;8.43;5.93;;;28.00;96.70;;;;;;4899076;29;20051;-81
2023/07/16 01:50:56;;;;;;;11.32;5.90;;;27.90;96.70;;;;;;4918918;29;20119;-81
2023/07/16 01:53:24;;;;;;;10.65;5.85;;;27.90;96.70;;;;;;4925689;29;20043;-81
2023/07/16 01:55:52;;;;;;;10.00;6.18;;;27.90;96.70;;;;;;4930962;29;20165;-81
2023/07/16 01:58:21;;;;;;;9.15;5.97;;;27.90;96.70;;;;;;4916479;29;20055;-81
2023/07/16 02:00:50;;;;;;;10.63;6.00;;;27.80;96.70;;;;;;4920182;29;20095;-81
2023/07/16 02:03:19;;;;;;;10.10;5.72;;;27.80;96.70;;;;;;4914829;29;20091;-81
2023/07/16 02:05:48;;;;;;;11.18;6.03;;;27.80;96.70;;;;;;4919303;29;20048;-81
2023/07/16 02:08:17;;;;;;;9.43;6.22;;;27.80;96.70;;;;;;4913771;29;20060;-81
2023/07/16 02:10:47;;;;;;;9.70;5.78;;;27.80;96.70;;;;;;4923561;29;20548;-81
2023/07/16 02:13:16;;;;;;;13.95;6.63;;;27.80;96.70;;;;;;4920463;29;20699;-81
2023/07/16 02:15:44;;;;;;;8.63;5.90;;;27.80;96.70;;;;;;4920298;29;20048;-81
2023/07/16 02:18:14;;;;;;;10.13;5.97;;;27.80;96.70;;;;;;4919044;29;20047;-80
2023/07/16 02:20:45;;;;;;;10.60;6.30;;;27.70;96.70;;;;;;4926124;29;20055;-80
2023/07/16 02:23:13;;;;;;;11.85;5.63;;;27.70;96.70;;;;;;4912943;29;20056;-81
2023/07/16 02:25:41;;;;;;;11.07;6.38;;;27.70;96.70;;;;;;4920372;29;20060;-79
2023/07/16 02:28:09;;;;;;;15.40;6.68;;;27.70;96.70;;;;;;4906273;29;20048;-79
2023/07/16 02:30:40;;;;;;;11.48;5.72;;;27.70;96.70;;;;;;4929772;29;20047;-80
2023/07/16 02:33:08;;;;;;;9.32;5.65;;;27.70;96.70;;;;;;4921939;29;20090;-80
2023/07/16 02:35:36;;;;;;;11.48;6.32;;;27.70;96.70;;;;;;4912219;29;20074;-81
2023/07/16 02:38:06;;;;;;;10.95;6.07;;;27.70;96.70;;;;;;4913184;29;20167;-79
2023/07/16 02:40:35;;;;;;;9.95;5.97;;;27.60;96.70;;;;;;4910075;29;20043;-80
2023/07/16 02:43:05;;;;;;;10.18;5.93;;;27.60;96.70;;;;;;4909666;29;20044;-79
2023/07/16 02:45:33;;;;;;;10.93;6.28;;;27.50;96.70;;;;;;4911542;29;20118;-80
2023/07/16 02:48:01;;;;;;;12.05;5.80;;;27.50;96.70;;;;;;4908228;29;20109;-80
2023/07/16 02:50:29;;;;;;;7.70;5.65;;;27.40;96.70;;;;;;4925614;29;20127;-80
2023/07/16 02:52:57;;;;;;;10.52;5.82;;;27.40;96.70;;;;;;4908065;29;20047;-80
2023/07/16 02:55:27;;;;;;;12.02;6.10;;;27.50;96.70;;;;;;4909786;29;20052;-80
2023/07/16 02:57:55;;;;;;;13.70;6.43;;;27.50;96.70;;;;;;4926457;29;20493;-80
2023/07/16 03:00:24;;;;;;;12.32;6.20;;;27.40;96.70;;;;;;4913682;29;20039;-81
2023/07/16 03:02:52;;;;;;;9.50;5.68;;;27.40;96.70;;;;;;4917549;29;20044;-80
2023/07/16 03:05:20;;;;;;;9.65;6.43;;;27.30;96.70;;;;;;4920944;29;20526;-80
2023/07/16 03:07:48;;;;;;;10.10;6.28;;;27.40;96.70;;;;;;4918559;29;20039;-81
2023/07/16 03:10:17;;;;;;;11.00;6.07;;;27.30;96.70;;;;;;4921692;29;20048;-80
2023/07/16 03:12:47;;;;;;;13.93;6.68;;;27.30;96.70;;;;;;4929038;29;20647;-81
2023/07/16 03:15:15;;;;;;;10.63;6.13;;;27.20;96.70;;;;;;4912379;29;20062;-80
2023/07/16 03:17:44;;;;;;;10.77;5.93;;;27.20;96.70;;;;;;4908354;29;20054;-81
2023/07/16 03:20:13;;;;;;;11.25;6.07;;;27.20;96.70;;;;;;4917514;29;20051;-80
2023/07/16 03:22:41;;;;;;;9.55;6.40;;;27.10;96.70;;;;;;4910981;29;20866;-81
2023/07/16 03:25:10;;;;;;;15.07;6.78;;;27.00;96.70;;;;;;4920381;29;20058;-80
2023/07/16 03:27:39;;;;;;;12.02;6.88;;;26.90;96.70;;;;;;4911402;29;20047;-81
2023/07/16 03:30:09;;;;;;;9.50;6.88;;;26.80;96.70;;;;;;4915664;29;20048;-80
2023/07/16 03:32:38;;;;;;;13.52;6.82;;;26.80;96.70;;;;;;4911685;29;20134;-80
2023/07/16 03:35:22;;;;;;;9.65;6.75;;;26.80;96.70;;;;;;4916663;29;20110;-81
2023/07/16 03:37:53;;;;;;;12.00;6.88;;;26.80;96.70;;;;;;4919991;29;20047;-80
2023/07/16 03:40:25;;;;;;;9.98;7.05;;;26.70;96.70;;;;;;4910942;29;20526;-80
2023/07/16 03:42:53;;;;;;;9.65;7.15;;;26.60;96.70;;;;;;4928108;29;20043;-81
2023/07/16 03:45:25;;;;;;;10.15;6.57;;;26.50;96.70;;;;;;4920017;29;20126;-81
2023/07/16 03:47:53;;;;;;;11.02;5.97;;;26.30;96.70;;;;;;4904629;29;20114;-81
2023/07/16 03:50:22;;;;;;;8.95;6.28;;;26.20;96.70;;;;;;4921721;29;20044;-81
2023/07/16 03:52:50;;;;;;;8.95;6.10;;;26.10;96.70;;;;;;4919374;29;20063;-81
2023/07/16 03:55:18;;;;;;;7.10;5.25;;;26.20;96.70;;;;;;4917448;29;20272;-80
2023/07/16 03:57:47;;;;;;;7.80;5.53;;;26.20;96.70;;;;;;4910429;29;20047;-81
2023/07/16 04:00:15;;;;;;;7.90;5.05;;;26.20;96.70;;;;;;4895098;29;20043;-80
2023/07/16 04:02:50;;;;;;;6.25;5.30;;;26.20;96.70;;;;;;4910838;29;20055;-80
2023/07/16 04:05:19;;;;;;;6.68;5.68;;;26.20;96.70;;;;;;4927533;29;20044;-82
2023/07/16 04:07:51;;;;;;;6.90;5.22;;;26.20;96.70;;;;;;4911928;29;20050;-81
2023/07/16 04:10:19;;;;;;;6.43;5.38;;;26.20;96.70;;;;;;4911126;29;20819;-81
2023/07/16 04:12:47;;;;;;;6.75;6.00;;;26.20;96.70;;;;;;4928166;29;20039;-80
2023/07/16 04:15:15;;;;;;;8.88;5.35;;;26.20;96.70;;;;;;4914860;29;20044;-80
2023/07/16 04:17:43;;;;;;;7.47;5.28;;;26.20;96.70;;;;;;4927815;29;20058;-82
2023/07/16 04:20:13;;;;;;;9.25;5.28;;;26.20;96.70;;;;;;4926014;29;20589;-81
2023/07/16 04:22:41;;;;;;;7.82;5.07;;;26.20;96.70;;;;;;4909275;29;20139;-80
2023/07/16 04:25:09;;;;;;;7.13;5.60;;;26.20;96.70;;;;;;4930571;29;20654;-81
2023/07/16 04:27:40;;;;;;;9.18;5.55;;;26.20;96.70;;;;;;4911520;29;20652;-81
2023/07/16 04:30:08;;;;;;;10.13;5.85;;;26.20;96.70;;;;;;4932098;29;20043;-80
2023/07/16 04:32:37;;;;;;;7.43;5.40;;;26.30;96.70;;;;;;4912110;29;20439;-80
2023/07/16 04:35:06;;;;;;;7.25;5.80;;;26.40;96.70;;;;;;4903256;29;20047;-81
2023/07/16 04:37:35;;;;;;;7.75;6.25;;;26.50;96.70;;;;;;4919042;29;20091;-80
2023/07/16 04:40:04;;;;;;;9.32;6.03;;;26.50;96.70;;;;;;4914394;29;20054;-81
2023/07/16 04:42:33;;;;;;;11.55;6.20;;;26.40;96.70;;;;;;4918354;29;20051;-81
2023/07/16 04:45:00;;;;;;;6.90;6.18;;;26.40;96.70;;;;;;4928589;29;20075;-81
2023/07/16 04:47:28;;;;;;;9.02;6.90;;;26.40;96.70;;;;;;4914159;29;20134;-80
2023/07/16 04:49:57;;;;;;;9.48;6.45;;;26.50;96.70;;;;;;4902432;29;20073;-81
2023/07/16 04:52:26;;;;;;;12.73;8.00;;;26.50;96.70;;;;;;4932036;29;20043;-81
2023/07/16 04:54:56;;;;;;;9.57;7.28;;;26.60;96.70;;;;;;4915714;29;20118;-81
2023/07/16 04:57:24;;;;;;;10.63;6.95;;;26.60;96.70;;;;;;4940247;28;20555;-81
2023/07/16 04:59:52;;;;;;;14.10;7.43;;;26.70;96.70;;;;;;4918326;29;20586;-82
2023/07/16 05:02:19;;;;;;;10.52;7.18;;;26.70;96.70;;;;;;4928238;29;20055;-81
2023/07/16 05:04:48;;;;;;;12.75;7.88;;;26.80;96.70;;;;;;4940280;28;20040;-81
2023/07/16 05:07:16;;;;;;;10.23;8.02;;;26.80;96.70;;;;;;4937376;28;20498;-81
2023/07/16 05:09:44;;;;;;;14.02;7.93;;;26.90;96.70;;;;;;4910147;29;20411;-80
2023/07/16 05:12:13;;;;;;;12.35;8.57;;;26.80;96.70;;;;;;4939296;29;20540;-80
2023/07/16 05:14:46;;;;;;;14.00;8.38;;;26.80;96.70;;;;;;4932568;29;20057;-80
2023/07/16 05:17:14;;;;;;;14.55;8.60;;;26.80;96.70;;;;;;4909918;29;20055;-79
2023/07/16 05:19:42;;;;;;;10.20;7.95;;;26.90;96.70;;;;;;4917399;29;20046;-80
2023/07/16 05:22:10;;;;;;;11.95;7.82;;;26.90;96.70;;;;;;4932161;29;20378;-80
2023/07/16 05:24:38;;;;;;;10.95;8.20;;;27.00;96.70;;;;;;4921671;29;20052;-82
2023/07/16 05:27:06;;;;;;;12.27;9.30;;;27.10;96.70;;;;;;4931201;29;20040;-82
2023/07/16 05:29:36;;;;;;;9.70;8.27;;;26.90;96.70;;;;;;4931016;29;20229;-83
2023/07/16 05:32:04;;;;;;;10.65;7.63;;;26.90;96.70;;;;;;4921215;29;20515;-80
2023/07/16 05:34:33;;;;;;;13.65;7.93;;;26.90;96.70;;;;;;4929230;29;20042;-80
2023/07/16 05:37:01;;;;;;;11.20;7.82;;;27.10;96.70;;;;;;4929359;29;20047;-80
2023/07/16 05:39:29;;;;;;;13.90;7.10;;;27.10;96.70;;;;;;4920526;29;20126;-81
2023/07/16 05:41:57;;;;;;;14.18;8.70;;;27.20;96.70;;;;;;4927223;29;20091;-81
2023/07/16 05:44:25;;;;;;;13.60;6.85;;;27.20;96.70;;;;;;4904481;29;20499;-80
2023/07/16 05:46:54;;;;;;;14.85;6.90;;;27.20;96.70;;;;;;4922927;29;20192;-80
2023/07/16 05:49:23;;;;;;;12.45;7.55;;;27.30;96.70;;;;;;4929998;29;20157;-80
2023/07/16 05:51:51;;;;;;;10.77;7.55;;;27.20;96.70;;;;;;4917398;29;20067;-80
2023/07/16 05:54:19;;;;;;;12.55;7.32;;;27.20;96.70;;;;;;4912642;29;20680;-80
2023/07/16 05:56:47;;;;;;;11.43;7.38;;;27.20;96.70;;;;;;4929732;29;20353;-80
2023/07/16 05:59:15;;;;;;;13.35;7.40;;;27.30;96.70;;;;;;4905351;29;20107;-80
2023/07/16 06:01:42;;;;;;;11.93;6.80;;;27.40;96.70;;;;;;4897041;29;20052;-81
2023/07/16 06:04:12;;;;;;;10.38;7.25;;;27.40;96.70;;;;;;4913299;29;20043;-81
2023/07/16 06:06:40;;;;;;;12.25;6.45;;;27.50;96.70;;;;;;4920868;29;20042;-81
2023/07/16 06:09:08;;;;;;;11.75;6.18;;;27.50;96.70;;;;;;4929931;29;20074;-80
2023/07/16 06:11:36;;;;;;;10.32;6.68;;;27.50;96.70;;;;;;4924330;29;20079;-80
2023/07/16 06:14:04;;;;;;;13.48;7.00;;;27.50;96.70;;;;;;4929514;29;20032;-80
2023/07/16 06:16:32;;;;;;;11.38;6.40;;;27.50;96.70;;;;;;4919352;29;20142;-79
2023/07/16 06:19:00;;;;;;;10.13;6.10;;;27.60;96.70;;;;;;4929112;29;20079;-79
2023/07/16 06:21:29;;;;;;;12.05;6.78;;;27.70;96.70;;;;;;4924875;29;20477;-81
2023/07/16 06:23:57;;;;;;;9.10;6.68;;;27.80;96.70;;;;;;4928809;29;20517;-79
2023/07/16 06:26:24;;;;;;;9.20;7.00;;;27.80;96.70;;;;;;4929653;29;20055;-80
2023/07/16 06:28:52;;;;;;;9.50;6.43;;;27.90;96.70;;;;;;4924330;29;20095;-82
2023/07/16 06:31:20;;;;;;;10.13;6.40;;;27.90;96.70;;;;;;4932835;29;20052;-80
2023/07/16 06:33:50;;;;;;;12.63;6.80;;;28.00;96.70;;;;;;4926983;29;20052;-81
2023/07/16 06:36:20;;;;;;;14.60;7.45;;;28.00;96.70;;;;;;4927201;29;20043;-80
2023/07/16 06:38:49;;;;;;;9.88;6.25;;;28.00;96.70;;;;;;4930608;29;20051;-82
2023/07/16 06:41:18;;;;;;;10.93;7.15;;;28.10;96.70;;;;;;4917477;29;20490;-81
2023/07/16 06:43:46;;;;;;;9.82;6.38;;;28.10;96.70;;;;;;4928250;29;20066;-82
2023/07/16 06:46:14;;;;;;;10.38;6.38;;;28.20;96.70;;;;;;4928869;29;20052;-83
2023/07/16 06:48:42;;;;;;;11.80;6.43;;;28.30;96.70;;;;;;4921021;29;20067;-82
2023/07/16 06:51:10;;;;;;;11.38;5.93;;;28.30;96.70;;;;;;4916058;29;20078;-81
2023/07/16 06:53:38;;;;;;;12.25;6.80;;;28.40;96.70;;;;;;4929583;29;20047;-81
2023/07/16 06:56:07;;;;;;;10.40;6.38;;;28.40;96.70;;;;;;4926293;29;20051;-81
2023/07/16 06:58:35;;;;;;;16.20;13.65;;;28.40;96.70;;;;;;4928439;29;20112;-79
2023/07/16 07:01:03;;;;;;;23.33;18.42;;;28.40;96.70;;;;;;4928005;29;20051;-79
2023/07/16 07:03:33;;;;;;;26.35;21.65;;;28.40;96.70;;;;;;4917403;29;20047;-81
2023/07/16 07:06:03;;;;;;;13.18;8.68;;;28.50;96.70;;;;;;4918490;29;20759;-81
2023/07/16 07:08:32;;;;;;;14.20;7.22;;;28.60;96.70;;;;;;4901372;29;20052;-80
2023/07/16 07:11:00;;;;;;;12.00;7.30;;;28.70;96.70;;;;;;4903573;29;20510;-81
2023/07/16 07:13:29;;;;;;;9.90;5.95;;;28.80;96.70;;;;;;4926778;29;20143;-80
2023/07/16 07:15:57;;;;;;;14.75;7.00;;;28.80;96.70;;;;;;4926379;29;20087;-81
2023/07/16 07:18:25;;;;;;;9.45;6.07;;;28.90;96.70;;;;;;4920607;29;20633;-81
2023/07/16 07:20:53;;;;;;;9.15;5.32;;;29.00;96.70;;;;;;4929929;29;20111;-83
2023/07/16 07:23:21;;;;;;;8.68;4.90;;;29.10;96.70;;;;;;4915736;29;20054;-82
2023/07/16 07:25:51;;;;;;;9.50;5.45;;;29.20;96.70;;;;;;4924261;29;20047;-79
2023/07/16 07:28:20;;;;;;;9.60;5.10;;;29.30;96.70;;;;;;4921609;29;20046;-80
2023/07/16 07:30:49;;;;;;;9.88;4.72;;;29.30;96.70;;;;;;4921911;29;20051;-80
2023/07/16 07:33:17;;;;;;;11.20;5.15;;;29.40;96.70;;;;;;4914290;29;20506;-79
2023/07/16 07:35:44;;;;;;;7.90;4.85;;;29.40;96.70;;;;;;4920892;29;20051;-78
2023/07/16 07:38:12;;;;;;;8.70;5.18;;;29.50;96.70;;;;;;4919744;29;20070;-79
2023/07/16 07:40:43;;;;;;;9.70;5.95;;;29.50;96.70;;;;;;4915432;29;20055;-78
2023/07/16 07:43:11;;;;;;;9.18;5.90;;;29.50;96.70;;;;;;4924508;29;20051;-79
2023/07/16 07:45:39;;;;;;;11.32;6.10;;;29.60;96.70;;;;;;4917607;29;20047;-78
2023/07/16 07:48:09;;;;;;;10.35;6.00;;;29.60;96.70;;;;;;4933242;29;20051;-80
2023/07/16 07:50:36;;;;;;;9.45;5.55;;;29.70;96.70;;;;;;4916108;29;20051;-78
2023/07/16 07:53:06;;;;;;;8.63;6.10;;;29.70;96.70;;;;;;4935888;28;20445;-78
2023/07/16 07:55:35;;;;;;;8.55;5.43;;;29.80;96.70;;;;;;4934430;29;20526;-78
2023/07/16 07:58:03;;;;;;;10.73;5.80;;;29.90;96.70;;;;;;4921988;29;20581;-78
2023/07/16 08:00:31;;;;;;;9.25;5.43;;;30.00;96.70;;;;;;4924361;29;20400;-78
2023/07/16 08:02:58;;;;;;;8.68;5.75;;;30.00;96.70;;;;;;4919774;29;20044;-79
2023/07/16 08:05:28;;;;;;;11.23;5.32;;;30.10;96.70;;;;;;4897889;29;20084;-80
2023/07/16 08:07:56;;;;;;;10.18;5.90;;;30.10;96.70;;;;;;4928000;29;20122;-79
2023/07/16 08:10:24;;;;;;;7.65;4.85;;;30.10;96.70;;;;;;4915967;29;20055;-79
2023/07/16 08:12:52;;;;;;;15.13;5.82;;;30.20;96.70;;;;;;4927529;29;20054;-79
2023/07/16 08:15:20;;;;;;;15.75;13.32;;;30.30;96.70;;;;;;4919452;29;20082;-79
2023/07/16 08:17:48;;;;;;;12.43;10.73;;;30.30;96.70;;;;;;4928565;29;20048;-80
2023/07/16 08:20:16;;;;;;;11.95;5.40;;;30.30;96.70;;;;;;4933321;29;20047;-80
2023/07/16 08:22:46;;;;;;;8.65;5.55;;;30.30;96.70;;;;;;4899903;29;20051;-80
2023/07/16 08:25:13;;;;;;;8.23;4.25;;;30.40;96.70;;;;;;4888157;29;20070;-86
2023/07/16 08:27:41;;;;;;;8.52;4.65;;;30.50;96.70;;;;;;4914780;29;20053;-85
2023/07/16 08:30:10;;;;;;;8.40;4.63;;;30.50;96.70;;;;;;4923425;29;20135;-83
2023/07/16 08:32:38;;;;;;;7.88;4.10;;;30.50;96.70;;;;;;4902709;29;20047;-82
2023/07/16 08:35:07;;;;;;;8.90;4.45;;;30.60;96.70;;;;;;4919764;29;20574;-83
2023/07/16 08:37:35;;;;;;;10.05;4.22;;;30.80;96.70;;;;;;4930069;28;20050;-82
2023/07/16 08:40:05;;;;;;;6.68;4.00;;;30.90;96.70;;;;;;4928934;29;20054;-81
2023/07/16 08:42:37;;;;;;;7.93;4.38;;;30.80;96.70;;;;;;4912200;29;20514;-82
2023/07/16 08:45:16;;;;;;;8.65;4.53;;;30.90;96.70;;;;;;4921059;29;20107;-82
2023/07/16 08:47:44;;;;;;;7.22;4.60;;;31.00;96.70;;;;;;4898042;29;20051;-81
2023/07/16 08:50:13;;;;;;;9.00;4.20;;;31.00;96.70;;;;;;4929298;29;20051;-81
2023/07/16 08:52:43;;;;;;;8.05;4.55;;;31.00;96.70;;;;;;4926426;29;20059;-81
2023/07/16 08:55:12;;;;;;;9.57;4.78;;;31.20;96.70;;;;;;4920465;29;20106;-82
2023/07/16 08:57:42;;;;;;;7.97;4.35;;;31.30;96.70;;;;;;4929240;29;20063;-81
2023/07/16 09:00:12;;;;;;;7.55;3.97;;;31.30;96.70;;;;;;4916776;29;20079;-81
2023/07/16 09:02:41;;;;;;;6.65;3.55;;;31.40;96.70;;;;;;4894603;29;20073;-82
2023/07/16 09:05:10;;;;;;;9.70;4.03;;;31.50;96.70;;;;;;4928624;29;20051;-81
2023/07/16 09:07:55;;;;;;;11.30;4.53;;;31.50;96.70;;;;;;4912404;29;20071;-81
2023/07/16 09:10:24;;;;;;;7.22;3.67;;;31.50;96.70;;;;;;4904889;29;20047;-82
2023/07/16 09:12:53;;;;;;;8.45;5.93;;;31.50;96.70;;;;;;4903919;29;20050;-81
2023/07/16 09:15:22;;;;;;;6.57;4.75;;;31.60;96.70;;;;;;4925670;29;20043;-81
2023/07/16 09:17:50;;;;;;;8.95;4.20;;;31.60;96.70;;;;;;4915323;29;20047;-80
2023/07/16 09:20:20;;;;;;;6.82;4.03;;;31.70;96.70;;;;;;4926668;29;20146;-79
2023/07/16 09:22:49;;;;;;;8.95;4.30;;;31.70;96.70;;;;;;4915409;29;20043;-81
2023/07/16 09:25:17;;;;;;;7.65;3.75;;;31.80;96.70;;;;;;4941141;28;20055;-80
2023/07/16 09:27:50;;;;;;;5.78;3.70;;;31.80;96.70;;;;;;4922724;29;20142;-80
2023/07/16 09:30:19;;;;;;;9.93;3.83;;;31.80;96.70;;;;;;4930404;29;20126;-80
2023/07/16 09:32:47;;;;;;;7.30;3.53;;;31.90;96.70;;;;;;4926175;29;20375;-80
2023/07/16 09:35:17;;;;;;;7.32;3.95;;;32.00;96.70;;;;;;4916765;29;20055;-80
2023/07/16 09:37:45;;;;;;;5.85;3.75;;;32.00;96.70;;;;;;4935224;29;20043;-80
2023/07/16 09:40:13;;;;;;;8.80;4.15;;;32.00;96.70;;;;;;4936299;28;20061;-80
2023/07/16 09:42:43;;;;;;;7.15;3.83;;;32.00;96.70;;;;;;4933737;28;20074;-80
2023/07/16 09:45:19;;;;;;;6.55;3.25;;;31.90;96.70;;;;;;4912326;29;20099;-80
2023/07/16 09:47:48;;;;;;;7.53;3.67;;;32.00;96.70;;;;;;4908860;29;20075;-81
2023/07/16 09:50:16;;;;;;;9.30;4.18;;;32.10;96.70;;;;;;4901890;29;20051;-79
2023/07/16 09:52:47;;;;;;;14.63;4.50;;;32.10;96.70;;;;;;4937176;28;20094;-80
2023/07/16 09:55:16;;;;;;;7.32;3.55;;;32.20;96.70;;;;;;4912935;29;20521;-80
2023/07/16 09:57:46;;;;;;;7.15;3.35;;;32.40;96.70;;;;;;4913833;29;20043;-79
2023/07/16 10:00:17;;;;;;;9.98;3.70;;;32.40;96.70;;;;;;4915526;29;20085;-78
2023/07/16 10:02:46;;;;;;;6.28;3.70;;;32.50;96.70;;;;;;4937257;29;21047;-77
2023/07/16 10:05:15;;;;;;;9.02;3.25;;;32.60;96.70;;;;;;4947849;29;20677;-81
2023/07/16 10:07:49;;;;;;;9.18;4.25;;;32.70;96.70;;;;;;4920897;29;20521;-83
2023/07/16 10:10:18;;;;;;;8.82;4.28;;;32.80;96.70;;;;;;4931338;29;20054;-81
2023/07/16 10:13:01;;;;;;;8.70;4.00;;;32.80;96.70;;;;;;4929127;29;20046;-82
2023/07/16 10:15:34;;;;;;;6.18;3.65;;;32.90;96.70;;;;;;4936055;29;20082;-82
2023/07/16 10:18:02;;;;;;;9.38;3.65;;;33.00;96.70;;;;;;4906435;29;20154;-83
2023/07/16 10:20:33;;;;;;;5.30;3.17;;;32.90;96.70;;;;;;4922163;29;20067;-80
2023/07/16 10:23:12;;;;;;;8.95;4.22;;;33.10;96.70;;;;;;4930215;29;20588;-79
2023/07/16 10:25:57;;;;;;;6.60;3.60;;;33.20;96.70;;;;;;4930926;29;20145;-79
2023/07/16 10:28:26;;;;;;;7.40;3.67;;;33.40;96.70;;;;;;4938487;29;20051;-79
2023/07/16 10:30:56;;;;;;;10.48;3.53;;;33.50;96.70;;;;;;4917001;29;20044;-79
2023/07/16 10:33:24;;;;;;;6.45;3.30;;;33.70;96.70;;;;;;4915662;29;20047;-81
2023/07/16 10:35:53;;;;;;;10.55;3.78;;;33.80;96.70;;;;;;4930412;28;20035;-81
2023/07/16 10:38:21;;;;;;;7.97;3.78;;;33.80;96.70;;;;;;4915646;29;20053;-81
2023/07/16 10:40:49;;;;;;;8.38;3.25;;;33.90;96.70;;;;;;4920914;29;20048;-79
2023/07/16 10:43:18;;;;;;;9.75;3.55;;;34.00;96.70;;;;;;4912163;29;20379;-80
2023/07/16 10:45:47;;;;;;;7.55;3.35;;;34.20;96.70;;;;;;4930649;29;20503;-80
2023/07/16 10:48:16;;;;;;;10.02;3.58;;;34.10;96.70;;;;;;4923279;29;20047;-79
2023/07/16 10:50:45;;;;;;;5.75;3.50;;;34.10;96.70;;;;;;4934524;28;20071;-81
2023/07/16 10:53:13;;;;;;;5.40;3.28;;;34.20;96.70;;;;;;4934030;29;20047;-80
2023/07/16 10:55:42;;;;;;;5.07;3.85;;;34.30;96.70;;;;;;4898466;29;20067;-79
2023/07/16 10:58:11;;;;;;;7.20;4.07;;;34.30;96.70;;;;;;4910769;29;20146;-79
2023/07/16 11:00:40;;;;;;;6.47;3.08;;;34.30;96.70;;;;;;4919538;29;20098;-79
2023/07/16 11:03:09;;;;;;;5.22;2.90;;;34.40;96.70;;;;;;4930030;28;20075;-80
2023/07/16 11:05:40;;;;;;;10.75;3.63;;;34.40;96.70;;;;;;4942944;29;20502;-82
2023/07/16 11:08:08;;;;;;;8.23;3.25;;;34.50;96.70;;;;;;4936162;28;20043;-82
2023/07/16 11:10:36;;;;;;;5.20;3.03;;;34.70;96.70;;;;;;4921321;29;20073;-82
2023/07/16 11:13:05;;;;;;;5.20;2.65;;;34.70;96.70;;;;;;4922229;29;20042;-84
2023/07/16 11:15:34;;;;;;;7.45;2.60;;;34.80;96.70;;;;;;4922178;29;20052;-82
2023/07/16 11:18:02;;;;;;;9.18;2.97;;;34.80;96.70;;;;;;4910868;29;20735;-80
2023/07/16 11:20:31;;;;;;;8.23;2.67;;;34.90;96.70;;;;;;4913419;29;20054;-81
2023/07/16 11:23:01;;;;;;;6.35;2.72;;;35.10;96.70;;;;;;4930700;29;20534;-80
2023/07/16 11:25:33;;;;;;;6.03;2.35;;;35.20;96.70;;;;;;4932145;29;20418;-80
2023/07/16 11:28:02;;;;;;;7.35;2.90;;;35.20;96.70;;;;;;4923442;29;20047;-81
2023/07/16 11:30:30;;;;;;;7.20;2.70;;;35.20;96.70;;;;;;4945711;29;20055;-77
2023/07/16 11:32:59;;;;;;;6.30;2.88;;;35.30;96.70;;;;;;4935187;28;20098;-79
2023/07/16 11:35:27;;;;;;;5.70;2.65;;;35.30;96.70;;;;;;4927667;29;20040;-78
2023/07/16 11:37:55;;;;;;;8.57;2.90;;;35.30;96.70;;;;;;4910336;29;20143;-80
2023/07/16 11:40:25;;;;;;;5.45;3.05;;;35.30;96.70;;;;;;4922555;29;20052;-80
2023/07/16 11:42:53;;;;;;;10.00;2.95;;;35.40;96.70;;;;;;4924998;29;20047;-79
2023/07/16 11:45:26;;;;;;;6.40;2.88;;;35.50;96.70;;;;;;4912712;29;20059;-77
2023/07/16 11:47:54;;;;;;;5.10;2.95;;;35.50;96.70;;;;;;4924961;29;20058;-79
2023/07/16 11:50:23;;;;;;;10.90;3.33;;;35.50;96.70;;;;;;4910026;29;20044;-80
2023/07/16 11:52:55;;;;;;;9.35;2.85;;;35.60;96.70;;;;;;4925089;29;20431;-79
2023/07/16 11:55:25;;;;;;;8.43;3.10;;;35.70;96.70;;;;;;4910371;29;20043;-81
2023/07/16 11:57:53;;;;;;;7.95;3.25;;;35.70;96.70;;;;;;4915051;29;20457;-81
2023/07/16 12:00:31;;;;;;;7.32;3.28;;;35.60;96.70;;;;;;4915173;29;20130;-80
2023/07/16 12:03:00;;;;;;;8.63;3.38;;;35.60;96.70;;;;;;4926535;29;20064;-80
2023/07/16 12:05:28;;;;;;;8.43;3.20;;;35.70;96.70;;;;;;4900691;29;20452;-80
2023/07/16 12:08:16;;;;;;;5.20;2.65;;;35.90;96.70;;;;;;4926435;29;20055;-79
2023/07/16 12:10:46;;;;;;;8.95;3.70;;;35.90;96.70;;;;;;4897747;29;20962;-79
2023/07/16 12:13:15;;;;;;;5.10;3.03;;;36.00;96.70;;;;;;4926881;29;20139;-79
2023/07/16 12:15:43;;;;;;;7.55;3.30;;;35.90;96.70;;;;;;4929786;29;20040;-82
2023/07/16 12:18:12;;;;;;;5.25;3.00;;;35.90;96.70;;;;;;4937000;28;20106;-81
2023/07/16 12:20:40;;;;;;;7.55;3.08;;;36.00;96.70;;;;;;4916787;29;20098;-82
2023/07/16 12:23:09;;;;;;;6.85;3.22;;;36.00;96.70;;;;;;4916400;29;20043;-82
2023/07/16 12:25:38;;;;;;;13.45;3.58;;;36.00;96.70;;;;;;4929956;29;20051;-82
2023/07/16 12:28:08;;;;;;;14.02;3.75;;;36.00;96.70;;;;;;4925325;29;20047;-82
2023/07/16 12:30:36;;;;;;;8.13;3.40;;;36.00;96.70;;;;;;4930166;29;20044;-86
2023/07/16 12:33:05;;;;;;;7.53;3.63;;;36.10;96.70;;;;;;4912147;29;20046;-84
2023/07/16 12:35:34;;;;;;;7.65;3.05;;;36.10;96.70;;;;;;4929700;29;20498;-85
2023/07/16 12:38:02;;;;;;;7.30;3.35;;;36.00;96.70;;;;;;4916612;29;20039;-85
2023/07/16 12:40:31;;;;;;;11.15;4.13;;;36.00;96.70;;;;;;4930215;29;20656;-85
2023/07/16 12:43:04;;;;;;;10.10;4.90;;;36.10;96.70;;;;;;4920133;29;20040;-85
2023/07/16 12:45:34;;;;;;;6.38;3.53;;;36.20;96.70;;;;;;4930525;29;20052;-86
2023/07/16 12:48:02;;;;;;;9.02;4.03;;;36.20;96.70;;;;;;4914555;29;20055;-85
2023/07/16 12:50:31;;;;;;;9.55;4.13;;;36.20;96.70;;;;;;4921912;29;20050;-84
2023/07/16 12:52:59;;;;;;;9.18;4.35;;;36.30;96.70;;;;;;4930398;29;20039;-83